sensor_id;sensor_type;location;lat;lon;timestamp;temperature;humidity
27506;DHT22;14939;43.596;1.320;2023-11-19T00:02:21;7.60;99.90
27506;DHT22;14939;43.596;1.320;2023-11-19T00:04:47;7.60;99.90
27506;DHT22;14939;43.596;1.320;2023-11-19T00:07:13;7.70;99.90
27506;DHT22;14939;43.596;1.320;2023-11-19T00:09:39;7.70;99.90
27506;DHT22;14939;43.596;1.320;2023-11-19T00:12:06;7.80;99.90
27506;DHT22;14939;43.596;1.320;2023-11-19T00:14:32;7.80;99.90
27506;DHT22;14939;43.596;1.320;2023-11-19T00:16:58;7.70;99.90
27506;DHT22;14939;43.596;1.320;2023-11-19T00:19:24;7.70;99.90
27506;DHT22;14939;43.596;1.320;2023-11-19T00:21:50;7.70;99.90
27506;DHT22;14939;43.596;1.320;2023-11-19T00:24:15;7.70;99.90
27506;DHT22;14939;43.596;1.320;2023-11-19T00:26:42;7.70;99.90
27506;DHT22;14939;43.596;1.320;2023-11-19T00:29:08;7.70;99.90
27506;DHT22;14939;43.596;1.320;2023-11-19T00:31:33;7.60;99.90
27506;DHT22;14939;43.596;1.320;2023-11-19T00:33:59;7.60;99.90
27506;DHT22;14939;43.596;1.320;2023-11-19T00:36:25;7.60;99.90
27506;DHT22;14939;43.596;1.320;2023-11-19T00:38:53;7.60;99.90
27506;DHT22;14939;43.596;1.320;2023-11-19T00:41:19;7.50;99.90
27506;DHT22;14939;43.596;1.320;2023-11-19T00:43:45;7.50;99.90
27506;DHT22;14939;43.596;1.320;2023-11-19T00:46:10;7.50;99.90
27506;DHT22;14939;43.596;1.320;2023-11-19T00:48:36;7.50;99.90
27506;DHT22;14939;43.596;1.320;2023-11-19T00:51:02;7.50;99.90
27506;DHT22;14939;43.596;1.320;2023-11-19T00:53:29;7.50;99.90
27506;DHT22;14939;43.596;1.320;2023-11-19T00:55:55;7.50;99.90
27506;DHT22;14939;43.596;1.320;2023-11-19T00:58:21;7.50;99.90
27506;DHT22;14939;43.596;1.320;2023-11-19T01:00:47;7.40;99.90
27506;DHT22;14939;43.596;1.320;2023-11-19T01:03:13;7.40;99.90
27506;DHT22;14939;43.596;1.320;2023-11-19T01:05:40;7.40;99.90
27506;DHT22;14939;43.596;1.320;2023-11-19T01:08:05;7.40;99.90
27506;DHT22;14939;43.596;1.320;2023-11-19T01:10:31;7.40;99.90
27506;DHT22;14939;43.596;1.320;2023-11-19T01:12:57;7.30;99.90
27506;DHT22;14939;43.596;1.320;2023-11-19T01:15:23;7.30;99.90
27506;DHT22;14939;43.596;1.320;2023-11-19T01:17:48;7.30;99.90
27506;DHT22;14939;43.596;1.320;2023-11-19T01:20:14;7.30;99.90
27506;DHT22;14939;43.596;1.320;2023-11-19T01:22:40;7.30;99.90
27506;DHT22;14939;43.596;1.320;2023-11-19T01:25:06;7.30;99.90
27506;DHT22;14939;43.596;1.320;2023-11-19T01:27:32;7.40;99.90
27506;DHT22;14939;43.596;1.320;2023-11-19T01:30:02;7.50;99.90
27506;DHT22;14939;43.596;1.320;2023-11-19T01:32:31;7.60;99.90
27506;DHT22;14939;43.596;1.320;2023-11-19T01:34:57;7.60;99.90
27506;DHT22;14939;43.596;1.320;2023-11-19T01:37:23;7.60;99.90
27506;DHT22;14939;43.596;1.320;2023-11-19T01:39:49;7.60;99.90
27506;DHT22;14939;43.596;1.320;2023-11-19T01:42:14;7.50;99.90
27506;DHT22;14939;43.596;1.320;2023-11-19T01:44:41;7.50;99.90
27506;DHT22;14939;43.596;1.320;2023-11-19T01:47:07;7.50;99.90
27506;DHT22;14939;43.596;1.320;2023-11-19T01:49:34;7.50;99.90
27506;DHT22;14939;43.596;1.320;2023-11-19T01:52:00;7.50;99.90
27506;DHT22;14939;43.596;1.320;2023-11-19T01:54:26;7.50;99.90
27506;DHT22;14939;43.596;1.320;2023-11-19T01:56:54;7.50;99.90
27506;DHT22;14939;43.596;1.320;2023-11-19T01:59:22;7.50;99.90
27506;DHT22;14939;43.596;1.320;2023-11-19T02:01:55;7.40;99.90
27506;DHT22;14939;43.596;1.320;2023-11-19T02:04:20;7.40;99.90
27506;DHT22;14939;43.596;1.320;2023-11-19T02:06:48;7.40;99.90
27506;DHT22;14939;43.596;1.320;2023-11-19T02:09:15;7.40;99.90
27506;DHT22;14939;43.596;1.320;2023-11-19T02:11:45;7.30;99.90
27506;DHT22;14939;43.596;1.320;2023-11-19T02:14:14;7.30;99.90
27506;DHT22;14939;43.596;1.320;2023-11-19T02:16:39;7.30;99.90
27506;DHT22;14939;43.596;1.320;2023-11-19T02:19:05;7.40;99.90
27506;DHT22;14939;43.596;1.320;2023-11-19T02:21:31;7.40;99.90
27506;DHT22;14939;43.596;1.320;2023-11-19T02:23:57;7.40;99.90
27506;DHT22;14939;43.596;1.320;2023-11-19T02:26:36;7.40;99.90
27506;DHT22;14939;43.596;1.320;2023-11-19T02:29:04;7.30;99.90
27506;DHT22;14939;43.596;1.320;2023-11-19T02:31:32;7.30;99.90
27506;DHT22;14939;43.596;1.320;2023-11-19T02:33:57;7.20;99.90
27506;DHT22;14939;43.596;1.320;2023-11-19T02:36:25;7.20;99.90
27506;DHT22;14939;43.596;1.320;2023-11-19T02:38:51;7.10;99.90
27506;DHT22;14939;43.596;1.320;2023-11-19T02:41:16;7.10;99.90
27506;DHT22;14939;43.596;1.320;2023-11-19T02:43:42;7.10;99.90
27506;DHT22;14939;43.596;1.320;2023-11-19T02:46:07;7.10;99.90
27506;DHT22;14939;43.596;1.320;2023-11-19T02:48:37;7.10;99.90
27506;DHT22;14939;43.596;1.320;2023-11-19T02:51:04;7.10;99.90
27506;DHT22;14939;43.596;1.320;2023-11-19T02:53:30;7.10;99.90
27506;DHT22;14939;43.596;1.320;2023-11-19T02:55:56;7.10;99.90
27506;DHT22;14939;43.596;1.320;2023-11-19T02:58:32;7.20;99.90
27506;DHT22;14939;43.596;1.320;2023-11-19T03:00:57;7.20;99.90
27506;DHT22;14939;43.596;1.320;2023-11-19T03:03:25;7.10;99.90
27506;DHT22;14939;43.596;1.320;2023-11-19T03:05:56;7.10;99.90
27506;DHT22;14939;43.596;1.320;2023-11-19T03:08:22;7.10;99.90
27506;DHT22;14939;43.596;1.320;2023-11-19T03:10:48;7.00;99.90
27506;DHT22;14939;43.596;1.320;2023-11-19T03:13:14;7.00;99.90
27506;DHT22;14939;43.596;1.320;2023-11-19T03:15:41;7.00;99.90
27506;DHT22;14939;43.596;1.320;2023-11-19T03:18:07;6.90;99.90
27506;DHT22;14939;43.596;1.320;2023-11-19T03:20:33;6.90;99.90
27506;DHT22;14939;43.596;1.320;2023-11-19T03:22:59;6.90;99.90
27506;DHT22;14939;43.596;1.320;2023-11-19T03:25:25;6.90;99.90
27506;DHT22;14939;43.596;1.320;2023-11-19T03:27:59;6.90;99.90
27506;DHT22;14939;43.596;1.320;2023-11-19T03:30:26;6.80;99.90
27506;DHT22;14939;43.596;1.320;2023-11-19T03:32:51;6.80;99.90
27506;DHT22;14939;43.596;1.320;2023-11-19T03:35:17;6.80;99.90
27506;DHT22;14939;43.596;1.320;2023-11-19T03:37:43;6.70;99.90
27506;DHT22;14939;43.596;1.320;2023-11-19T03:40:09;6.70;99.90
27506;DHT22;14939;43.596;1.320;2023-11-19T03:42:35;6.70;99.90
27506;DHT22;14939;43.596;1.320;2023-11-19T03:45:01;6.70;99.90
27506;DHT22;14939;43.596;1.320;2023-11-19T03:47:29;6.70;99.90
27506;DHT22;14939;43.596;1.320;2023-11-19T03:49:54;6.70;99.90
27506;DHT22;14939;43.596;1.320;2023-11-19T03:52:20;6.60;99.90
27506;DHT22;14939;43.596;1.320;2023-11-19T03:54:46;6.60;99.90
27506;DHT22;14939;43.596;1.320;2023-11-19T03:57:12;6.60;99.90
27506;DHT22;14939;43.596;1.320;2023-11-19T03:59:38;6.60;99.90
27506;DHT22;14939;43.596;1.320;2023-11-19T04:02:04;6.60;99.90
27506;DHT22;14939;43.596;1.320;2023-11-19T04:04:29;6.60;99.90
27506;DHT22;14939;43.596;1.320;2023-11-19T04:06:55;6.70;99.90
27506;DHT22;14939;43.596;1.320;2023-11-19T04:09:21;6.70;99.90
27506;DHT22;14939;43.596;1.320;2023-11-19T04:11:47;6.70;99.90
27506;DHT22;14939;43.596;1.320;2023-11-19T04:14:13;6.70;99.90
27506;DHT22;14939;43.596;1.320;2023-11-19T04:16:40;6.70;99.90
27506;DHT22;14939;43.596;1.320;2023-11-19T04:19:06;6.80;99.90
27506;DHT22;14939;43.596;1.320;2023-11-19T04:21:32;6.80;99.90
27506;DHT22;14939;43.596;1.320;2023-11-19T04:23:58;6.80;99.90
27506;DHT22;14939;43.596;1.320;2023-11-19T04:26:23;6.80;99.90
27506;DHT22;14939;43.596;1.320;2023-11-19T04:28:49;6.90;99.90
27506;DHT22;14939;43.596;1.320;2023-11-19T04:31:18;6.90;99.90
27506;DHT22;14939;43.596;1.320;2023-11-19T04:33:43;6.90;99.90
27506;DHT22;14939;43.596;1.320;2023-11-19T04:36:10;6.90;99.90
27506;DHT22;14939;43.596;1.320;2023-11-19T04:38:36;6.90;99.90
27506;DHT22;14939;43.596;1.320;2023-11-19T04:41:04;7.00;99.90
27506;DHT22;14939;43.596;1.320;2023-11-19T04:43:31;7.00;99.90
27506;DHT22;14939;43.596;1.320;2023-11-19T04:45:57;7.00;99.90
27506;DHT22;14939;43.596;1.320;2023-11-19T04:48:24;7.00;99.90
27506;DHT22;14939;43.596;1.320;2023-11-19T04:50:50;7.10;99.90
27506;DHT22;14939;43.596;1.320;2023-11-19T04:53:18;7.10;99.90
27506;DHT22;14939;43.596;1.320;2023-11-19T04:55:44;7.10;99.90
27506;DHT22;14939;43.596;1.320;2023-11-19T04:58:10;7.10;99.90
27506;DHT22;14939;43.596;1.320;2023-11-19T05:00:35;7.10;99.90
27506;DHT22;14939;43.596;1.320;2023-11-19T05:03:01;7.10;99.90
27506;DHT22;14939;43.596;1.320;2023-11-19T05:05:27;7.10;99.90
27506;DHT22;14939;43.596;1.320;2023-11-19T05:07:52;7.10;99.90
27506;DHT22;14939;43.596;1.320;2023-11-19T05:10:18;7.10;99.90
27506;DHT22;14939;43.596;1.320;2023-11-19T05:12:44;7.10;99.90
27506;DHT22;14939;43.596;1.320;2023-11-19T05:15:10;7.10;99.90
27506;DHT22;14939;43.596;1.320;2023-11-19T05:17:37;7.00;99.90
27506;DHT22;14939;43.596;1.320;2023-11-19T05:20:03;7.00;99.90
27506;DHT22;14939;43.596;1.320;2023-11-19T05:22:29;7.00;99.90
27506;DHT22;14939;43.596;1.320;2023-11-19T05:24:54;7.00;99.90
27506;DHT22;14939;43.596;1.320;2023-11-19T05:27:21;6.90;99.90
27506;DHT22;14939;43.596;1.320;2023-11-19T05:29:49;6.90;99.90
27506;DHT22;14939;43.596;1.320;2023-11-19T05:32:14;6.90;99.90
27506;DHT22;14939;43.596;1.320;2023-11-19T05:34:40;6.80;99.90
27506;DHT22;14939;43.596;1.320;2023-11-19T05:37:06;6.80;99.90
27506;DHT22;14939;43.596;1.320;2023-11-19T05:39:31;6.70;99.90
27506;DHT22;14939;43.596;1.320;2023-11-19T05:41:57;6.70;99.90
27506;DHT22;14939;43.596;1.320;2023-11-19T05:44:23;6.70;99.90
27506;DHT22;14939;43.596;1.320;2023-11-19T05:46:48;6.80;99.90
27506;DHT22;14939;43.596;1.320;2023-11-19T05:49:14;6.80;99.90
27506;DHT22;14939;43.596;1.320;2023-11-19T05:51:40;6.80;99.90
27506;DHT22;14939;43.596;1.320;2023-11-19T05:54:09;6.80;99.90
27506;DHT22;14939;43.596;1.320;2023-11-19T05:56:36;6.80;99.90
27506;DHT22;14939;43.596;1.320;2023-11-19T05:59:02;6.90;99.90
27506;DHT22;14939;43.596;1.320;2023-11-19T06:01:35;6.80;99.90
27506;DHT22;14939;43.596;1.320;2023-11-19T06:04:01;6.90;99.90
27506;DHT22;14939;43.596;1.320;2023-11-19T06:06:27;6.80;99.90
27506;DHT22;14939;43.596;1.320;2023-11-19T06:08:53;6.90;99.90
27506;DHT22;14939;43.596;1.320;2023-11-19T06:11:19;6.90;99.90
27506;DHT22;14939;43.596;1.320;2023-11-19T06:13:46;6.90;99.90
27506;DHT22;14939;43.596;1.320;2023-11-19T06:16:13;6.90;99.90
27506;DHT22;14939;43.596;1.320;2023-11-19T06:18:39;6.90;99.90
27506;DHT22;14939;43.596;1.320;2023-11-19T06:21:06;6.90;99.90
27506;DHT22;14939;43.596;1.320;2023-11-19T06:23:32;6.90;99.90
27506;DHT22;14939;43.596;1.320;2023-11-19T06:25:59;6.90;99.90
27506;DHT22;14939;43.596;1.320;2023-11-19T06:28:25;6.90;99.90
27506;DHT22;14939;43.596;1.320;2023-11-19T06:30:50;6.80;99.90
27506;DHT22;14939;43.596;1.320;2023-11-19T06:33:16;6.80;99.90
27506;DHT22;14939;43.596;1.320;2023-11-19T06:35:42;6.90;99.90
27506;DHT22;14939;43.596;1.320;2023-11-19T06:38:07;7.00;99.90
27506;DHT22;14939;43.596;1.320;2023-11-19T06:40:33;7.00;99.90
27506;DHT22;14939;43.596;1.320;2023-11-19T06:43:00;7.00;99.90
27506;DHT22;14939;43.596;1.320;2023-11-19T06:45:28;6.90;99.90
27506;DHT22;14939;43.596;1.320;2023-11-19T06:47:53;6.90;99.90
27506;DHT22;14939;43.596;1.320;2023-11-19T06:50:19;6.80;99.90
27506;DHT22;14939;43.596;1.320;2023-11-19T06:52:45;6.80;99.90
27506;DHT22;14939;43.596;1.320;2023-11-19T06:55:11;6.80;99.90
27506;DHT22;14939;43.596;1.320;2023-11-19T06:57:36;6.80;99.90
27506;DHT22;14939;43.596;1.320;2023-11-19T07:00:02;6.80;99.90
27506;DHT22;14939;43.596;1.320;2023-11-19T07:02:31;6.70;99.90
27506;DHT22;14939;43.596;1.320;2023-11-19T07:04:56;6.70;99.90
27506;DHT22;14939;43.596;1.320;2023-11-19T07:07:22;6.70;99.90
27506;DHT22;14939;43.596;1.320;2023-11-19T07:09:48;6.60;99.90
27506;DHT22;14939;43.596;1.320;2023-11-19T07:12:14;6.60;99.90
27506;DHT22;14939;43.596;1.320;2023-11-19T07:14:40;6.60;99.90
27506;DHT22;14939;43.596;1.320;2023-11-19T07:17:07;6.70;99.90
27506;DHT22;14939;43.596;1.320;2023-11-19T07:19:34;6.70;99.90
27506;DHT22;14939;43.596;1.320;2023-11-19T07:22:00;6.70;99.90
27506;DHT22;14939;43.596;1.320;2023-11-19T07:24:26;6.70;99.90
27506;DHT22;14939;43.596;1.320;2023-11-19T07:26:53;6.70;99.90
27506;DHT22;14939;43.596;1.320;2023-11-19T07:29:19;6.80;99.90
27506;DHT22;14939;43.596;1.320;2023-11-19T07:31:48;6.80;99.90
27506;DHT22;14939;43.596;1.320;2023-11-19T07:34:13;6.80;99.90
27506;DHT22;14939;43.596;1.320;2023-11-19T07:36:39;6.90;99.90
27506;DHT22;14939;43.596;1.320;2023-11-19T07:39:05;7.00;99.90
27506;DHT22;14939;43.596;1.320;2023-11-19T07:41:31;7.00;99.90
27506;DHT22;14939;43.596;1.320;2023-11-19T07:43:57;7.10;99.90
27506;DHT22;14939;43.596;1.320;2023-11-19T07:46:22;7.10;99.90
27506;DHT22;14939;43.596;1.320;2023-11-19T07:48:48;7.20;99.90
27506;DHT22;14939;43.596;1.320;2023-11-19T07:51:14;7.20;99.90
27506;DHT22;14939;43.596;1.320;2023-11-19T07:53:40;7.20;99.90
27506;DHT22;14939;43.596;1.320;2023-11-19T07:56:07;7.40;99.90
27506;DHT22;14939;43.596;1.320;2023-11-19T07:58:33;7.40;99.90
27506;DHT22;14939;43.596;1.320;2023-11-19T08:00:59;7.40;99.90
27506;DHT22;14939;43.596;1.320;2023-11-19T08:03:25;7.50;99.90
27506;DHT22;14939;43.596;1.320;2023-11-19T08:05:50;7.60;99.90
27506;DHT22;14939;43.596;1.320;2023-11-19T08:08:16;7.70;99.90
27506;DHT22;14939;43.596;1.320;2023-11-19T08:10:42;7.70;99.90
27506;DHT22;14939;43.596;1.320;2023-11-19T08:13:08;7.90;99.90
27506;DHT22;14939;43.596;1.320;2023-11-19T08:15:34;7.90;99.90
27506;DHT22;14939;43.596;1.320;2023-11-19T08:18:00;8.00;99.90
27506;DHT22;14939;43.596;1.320;2023-11-19T08:20:25;8.10;99.90
27506;DHT22;14939;43.596;1.320;2023-11-19T08:22:51;8.20;99.90
27506;DHT22;14939;43.596;1.320;2023-11-19T08:25:17;8.20;99.90
27506;DHT22;14939;43.596;1.320;2023-11-19T08:27:43;8.30;99.90
27506;DHT22;14939;43.596;1.320;2023-11-19T08:30:09;8.40;99.90
27506;DHT22;14939;43.596;1.320;2023-11-19T08:32:34;8.50;99.90
27506;DHT22;14939;43.596;1.320;2023-11-19T08:35:01;8.50;99.90
27506;DHT22;14939;43.596;1.320;2023-11-19T08:37:26;8.60;99.90
27506;DHT22;14939;43.596;1.320;2023-11-19T08:39:52;8.60;99.90
27506;DHT22;14939;43.596;1.320;2023-11-19T08:42:18;8.70;99.90
27506;DHT22;14939;43.596;1.320;2023-11-19T08:44:49;8.70;99.90
27506;DHT22;14939;43.596;1.320;2023-11-19T08:47:16;8.80;99.90
27506;DHT22;14939;43.596;1.320;2023-11-19T08:49:43;8.80;99.90
27506;DHT22;14939;43.596;1.320;2023-11-19T08:52:09;8.90;99.90
27506;DHT22;14939;43.596;1.320;2023-11-19T08:54:42;9.00;99.90
27506;DHT22;14939;43.596;1.320;2023-11-19T08:57:07;9.00;99.90
27506;DHT22;14939;43.596;1.320;2023-11-19T08:59:34;9.10;99.90
27506;DHT22;14939;43.596;1.320;2023-11-19T09:01:59;9.20;99.90
27506;DHT22;14939;43.596;1.320;2023-11-19T09:04:25;9.20;99.90
27506;DHT22;14939;43.596;1.320;2023-11-19T09:06:51;9.30;99.90
27506;DHT22;14939;43.596;1.320;2023-11-19T09:09:16;9.30;99.90
27506;DHT22;14939;43.596;1.320;2023-11-19T09:11:42;9.40;99.90
27506;DHT22;14939;43.596;1.320;2023-11-19T09:14:08;9.50;99.90
27506;DHT22;14939;43.596;1.320;2023-11-19T09:16:33;9.50;99.90
27506;DHT22;14939;43.596;1.320;2023-11-19T09:18:59;9.50;99.90
27506;DHT22;14939;43.596;1.320;2023-11-19T09:21:26;9.60;99.90
27506;DHT22;14939;43.596;1.320;2023-11-19T09:23:51;9.70;99.90
27506;DHT22;14939;43.596;1.320;2023-11-19T09:26:18;9.90;99.90
27506;DHT22;14939;43.596;1.320;2023-11-19T09:28:44;9.90;99.90
27506;DHT22;14939;43.596;1.320;2023-11-19T09:31:16;10.00;99.90
27506;DHT22;14939;43.596;1.320;2023-11-19T09:33:42;10.10;99.90
27506;DHT22;14939;43.596;1.320;2023-11-19T09:36:08;10.10;99.90
27506;DHT22;14939;43.596;1.320;2023-11-19T09:38:34;10.10;99.90
27506;DHT22;14939;43.596;1.320;2023-11-19T09:41:04;10.20;99.90
27506;DHT22;14939;43.596;1.320;2023-11-19T09:43:34;10.30;99.90
27506;DHT22;14939;43.596;1.320;2023-11-19T09:46:05;10.40;99.90
27506;DHT22;14939;43.596;1.320;2023-11-19T09:48:33;10.40;99.90
27506;DHT22;14939;43.596;1.320;2023-11-19T09:51:01;10.50;99.90
27506;DHT22;14939;43.596;1.320;2023-11-19T09:53:27;10.60;99.90
27506;DHT22;14939;43.596;1.320;2023-11-19T09:55:53;10.60;99.90
27506;DHT22;14939;43.596;1.320;2023-11-19T09:58:19;10.70;99.90
27506;DHT22;14939;43.596;1.320;2023-11-19T10:00:44;10.80;99.90
27506;DHT22;14939;43.596;1.320;2023-11-19T10:03:11;10.90;99.90
27506;DHT22;14939;43.596;1.320;2023-11-19T10:05:38;11.00;99.90
27506;DHT22;14939;43.596;1.320;2023-11-19T10:08:05;11.10;99.90
27506;DHT22;14939;43.596;1.320;2023-11-19T10:10:31;11.20;99.90
27506;DHT22;14939;43.596;1.320;2023-11-19T10:12:56;11.30;99.90
27506;DHT22;14939;43.596;1.320;2023-11-19T10:15:24;11.40;99.90
27506;DHT22;14939;43.596;1.320;2023-11-19T10:17:58;11.50;99.90
27506;DHT22;14939;43.596;1.320;2023-11-19T10:20:24;11.60;99.90
27506;DHT22;14939;43.596;1.320;2023-11-19T10:22:53;11.60;99.90
27506;DHT22;14939;43.596;1.320;2023-11-19T10:27:49;11.80;99.90
27506;DHT22;14939;43.596;1.320;2023-11-19T10:30:25;11.90;99.90
27506;DHT22;14939;43.596;1.320;2023-11-19T10:33:12;12.00;99.90
27506;DHT22;14939;43.596;1.320;2023-11-19T10:35:56;12.10;99.90
27506;DHT22;14939;43.596;1.320;2023-11-19T10:38:28;12.20;99.90
27506;DHT22;14939;43.596;1.320;2023-11-19T10:40:54;12.30;99.90
27506;DHT22;14939;43.596;1.320;2023-11-19T10:43:20;12.40;99.90
27506;DHT22;14939;43.596;1.320;2023-11-19T10:45:49;12.50;99.90
27506;DHT22;14939;43.596;1.320;2023-11-19T10:48:15;12.60;99.90
27506;DHT22;14939;43.596;1.320;2023-11-19T10:50:43;12.60;99.90
27506;DHT22;14939;43.596;1.320;2023-11-19T10:53:10;12.70;99.90
27506;DHT22;14939;43.596;1.320;2023-11-19T10:55:39;12.70;99.90
27506;DHT22;14939;43.596;1.320;2023-11-19T10:58:09;12.80;99.90
27506;DHT22;14939;43.596;1.320;2023-11-19T11:03:21;13.10;99.90
27506;DHT22;14939;43.596;1.320;2023-11-19T11:05:51;13.10;99.90
27506;DHT22;14939;43.596;1.320;2023-11-19T11:08:20;13.20;99.90
27506;DHT22;14939;43.596;1.320;2023-11-19T11:10:55;13.30;99.90
27506;DHT22;14939;43.596;1.320;2023-11-19T11:13:26;13.40;99.90
27506;DHT22;14939;43.596;1.320;2023-11-19T11:15:56;13.50;99.90
27506;DHT22;14939;43.596;1.320;2023-11-19T11:18:23;13.50;99.90
27506;DHT22;14939;43.596;1.320;2023-11-19T11:20:53;13.60;99.90
27506;DHT22;14939;43.596;1.320;2023-11-19T11:40:14;14.30;99.90
27506;DHT22;14939;43.596;1.320;2023-11-19T11:42:41;14.40;99.90
27506;DHT22;14939;43.596;1.320;2023-11-19T11:45:14;14.50;99.90
27506;DHT22;14939;43.596;1.320;2023-11-19T11:50:12;14.60;99.90
27506;DHT22;14939;43.596;1.320;2023-11-19T11:55:52;14.80;99.90
27506;DHT22;14939;43.596;1.320;2023-11-19T11:58:21;14.90;99.90
27506;DHT22;14939;43.596;1.320;2023-11-19T12:00:51;15.00;99.90
27506;DHT22;14939;43.596;1.320;2023-11-19T12:03:20;15.20;99.90
27506;DHT22;14939;43.596;1.320;2023-11-19T12:05:48;15.20;99.90
27506;DHT22;14939;43.596;1.320;2023-11-19T12:08:16;15.20;99.90
27506;DHT22;14939;43.596;1.320;2023-11-19T12:13:13;15.20;99.90
27506;DHT22;14939;43.596;1.320;2023-11-19T12:18:30;15.30;99.90
27506;DHT22;14939;43.596;1.320;2023-11-19T12:20:59;15.40;99.90
27506;DHT22;14939;43.596;1.320;2023-11-19T12:23:31;15.40;99.90
27506;DHT22;14939;43.596;1.320;2023-11-19T12:25:57;15.50;99.90
27506;DHT22;14939;43.596;1.320;2023-11-19T12:28:23;15.60;99.90
27506;DHT22;14939;43.596;1.320;2023-11-19T12:30:52;15.60;99.90
27506;DHT22;14939;43.596;1.320;2023-11-19T12:33:18;15.70;99.90
27506;DHT22;14939;43.596;1.320;2023-11-19T12:35:46;15.70;99.90
27506;DHT22;14939;43.596;1.320;2023-11-19T12:38:19;15.80;99.90
27506;DHT22;14939;43.596;1.320;2023-11-19T12:40:46;15.80;99.90
27506;DHT22;14939;43.596;1.320;2023-11-19T12:43:21;15.90;99.90
27506;DHT22;14939;43.596;1.320;2023-11-19T12:45:48;15.90;99.90
27506;DHT22;14939;43.596;1.320;2023-11-19T12:48:13;15.90;99.90
27506;DHT22;14939;43.596;1.320;2023-11-19T12:50:58;16.10;99.90
27506;DHT22;14939;43.596;1.320;2023-11-19T12:53:26;16.10;99.90
27506;DHT22;14939;43.596;1.320;2023-11-19T12:55:54;16.20;99.90
27506;DHT22;14939;43.596;1.320;2023-11-19T12:58:34;16.30;99.90
27506;DHT22;14939;43.596;1.320;2023-11-19T13:01:06;16.30;99.90
27506;DHT22;14939;43.596;1.320;2023-11-19T13:03:36;16.20;99.90
27506;DHT22;14939;43.596;1.320;2023-11-19T13:08:47;16.40;99.90
27506;DHT22;14939;43.596;1.320;2023-11-19T13:11:31;16.30;99.90
27506;DHT22;14939;43.596;1.320;2023-11-19T13:14:01;16.40;99.90
27506;DHT22;14939;43.596;1.320;2023-11-19T13:16:29;16.60;99.90
27506;DHT22;14939;43.596;1.320;2023-11-19T13:18:55;16.50;99.90
27506;DHT22;14939;43.596;1.320;2023-11-19T13:21:22;16.50;99.90
27506;DHT22;14939;43.596;1.320;2023-11-19T13:23:48;16.50;99.90
27506;DHT22;14939;43.596;1.320;2023-11-19T13:26:14;16.50;99.90
27506;DHT22;14939;43.596;1.320;2023-11-19T13:28:39;16.60;99.90
27506;DHT22;14939;43.596;1.320;2023-11-19T13:31:05;16.70;99.90
27506;DHT22;14939;43.596;1.320;2023-11-19T13:33:31;16.70;99.90
27506;DHT22;14939;43.596;1.320;2023-11-19T13:35:57;16.70;99.90
27506;DHT22;14939;43.596;1.320;2023-11-19T13:38:23;16.70;99.90
27506;DHT22;14939;43.596;1.320;2023-11-19T13:40:49;16.70;99.90
27506;DHT22;14939;43.596;1.320;2023-11-19T13:43:15;16.90;99.90
27506;DHT22;14939;43.596;1.320;2023-11-19T13:45:41;16.90;99.90
27506;DHT22;14939;43.596;1.320;2023-11-19T13:48:07;16.90;99.90
27506;DHT22;14939;43.596;1.320;2023-11-19T13:50:32;17.00;99.90
27506;DHT22;14939;43.596;1.320;2023-11-19T13:52:59;17.00;99.90
27506;DHT22;14939;43.596;1.320;2023-11-19T13:55:25;17.10;99.90
27506;DHT22;14939;43.596;1.320;2023-11-19T13:57:51;17.00;99.90
27506;DHT22;14939;43.596;1.320;2023-11-19T14:00:17;17.00;99.90
27506;DHT22;14939;43.596;1.320;2023-11-19T14:02:45;17.00;99.90
27506;DHT22;14939;43.596;1.320;2023-11-19T14:05:11;17.00;99.90
27506;DHT22;14939;43.596;1.320;2023-11-19T14:07:37;17.00;99.90
27506;DHT22;14939;43.596;1.320;2023-11-19T14:10:04;17.20;99.90
27506;DHT22;14939;43.596;1.320;2023-11-19T14:12:31;17.30;99.90
27506;DHT22;14939;43.596;1.320;2023-11-19T14:14:57;17.20;99.90
27506;DHT22;14939;43.596;1.320;2023-11-19T14:17:23;17.20;99.90
27506;DHT22;14939;43.596;1.320;2023-11-19T14:19:50;17.20;99.90
27506;DHT22;14939;43.596;1.320;2023-11-19T14:22:16;17.10;99.90
27506;DHT22;14939;43.596;1.320;2023-11-19T14:24:42;17.10;99.90
27506;DHT22;14939;43.596;1.320;2023-11-19T14:27:11;17.10;99.90
27506;DHT22;14939;43.596;1.320;2023-11-19T14:29:37;17.00;99.90
27506;DHT22;14939;43.596;1.320;2023-11-19T14:32:03;17.00;99.90
27506;DHT22;14939;43.596;1.320;2023-11-19T14:34:30;17.00;99.90
27506;DHT22;14939;43.596;1.320;2023-11-19T14:36:56;17.10;99.90
27506;DHT22;14939;43.596;1.320;2023-11-19T14:39:22;17.00;99.90
27506;DHT22;14939;43.596;1.320;2023-11-19T14:41:47;17.00;99.90
27506;DHT22;14939;43.596;1.320;2023-11-19T14:44:15;17.10;99.90
27506;DHT22;14939;43.596;1.320;2023-11-19T14:46:40;17.10;99.90
27506;DHT22;14939;43.596;1.320;2023-11-19T14:49:06;17.10;99.90
27506;DHT22;14939;43.596;1.320;2023-11-19T14:51:36;17.10;99.90
27506;DHT22;14939;43.596;1.320;2023-11-19T14:54:06;17.10;99.90
27506;DHT22;14939;43.596;1.320;2023-11-19T14:56:32;17.20;99.90
27506;DHT22;14939;43.596;1.320;2023-11-19T14:58:58;17.10;99.90
27506;DHT22;14939;43.596;1.320;2023-11-19T15:01:24;17.10;99.90
27506;DHT22;14939;43.596;1.320;2023-11-19T15:03:50;17.20;99.90
27506;DHT22;14939;43.596;1.320;2023-11-19T15:06:16;17.20;99.90
27506;DHT22;14939;43.596;1.320;2023-11-19T15:08:42;17.20;99.90
27506;DHT22;14939;43.596;1.320;2023-11-19T15:11:08;17.20;99.90
27506;DHT22;14939;43.596;1.320;2023-11-19T15:13:35;17.30;99.90
27506;DHT22;14939;43.596;1.320;2023-11-19T15:16:03;17.20;99.90
27506;DHT22;14939;43.596;1.320;2023-11-19T15:18:31;17.20;99.90
27506;DHT22;14939;43.596;1.320;2023-11-19T15:20:57;17.20;99.90
27506;DHT22;14939;43.596;1.320;2023-11-19T15:23:22;17.20;99.90
27506;DHT22;14939;43.596;1.320;2023-11-19T15:25:48;17.20;99.90
27506;DHT22;14939;43.596;1.320;2023-11-19T15:28:15;17.20;99.90
27506;DHT22;14939;43.596;1.320;2023-11-19T15:30:40;17.10;99.90
27506;DHT22;14939;43.596;1.320;2023-11-19T15:33:06;17.10;99.90
27506;DHT22;14939;43.596;1.320;2023-11-19T15:35:34;17.00;99.90
27506;DHT22;14939;43.596;1.320;2023-11-19T15:38:00;16.90;99.90
27506;DHT22;14939;43.596;1.320;2023-11-19T15:40:25;16.80;99.90
27506;DHT22;14939;43.596;1.320;2023-11-19T15:42:52;16.60;99.90
27506;DHT22;14939;43.596;1.320;2023-11-19T15:45:20;16.60;99.90
27506;DHT22;14939;43.596;1.320;2023-11-19T15:47:46;16.60;99.90
27506;DHT22;14939;43.596;1.320;2023-11-19T15:50:12;16.50;99.90
27506;DHT22;14939;43.596;1.320;2023-11-19T15:52:38;16.40;99.90
27506;DHT22;14939;43.596;1.320;2023-11-19T15:55:04;16.30;99.90
27506;DHT22;14939;43.596;1.320;2023-11-19T15:57:30;16.30;99.90
27506;DHT22;14939;43.596;1.320;2023-11-19T15:59:56;16.10;99.90
27506;DHT22;14939;43.596;1.320;2023-11-19T16:02:22;16.00;99.90
27506;DHT22;14939;43.596;1.320;2023-11-19T16:04:47;15.90;99.90
27506;DHT22;14939;43.596;1.320;2023-11-19T16:07:16;15.90;99.90
27506;DHT22;14939;43.596;1.320;2023-11-19T16:09:43;15.80;99.90
27506;DHT22;14939;43.596;1.320;2023-11-19T16:12:09;15.80;99.90
27506;DHT22;14939;43.596;1.320;2023-11-19T16:14:35;15.60;99.90